sensor_id;sensor_type;location;lat;lon;timestamp;P1;durP1;ratioP1;P2;durP2;ratioP2
14665;SDS011;7420;53.574;10.040;2023-08-21T00:01:46;3.88;;;3.78;;
14665;SDS011;7420;53.574;10.040;2023-08-21T00:04:11;3.80;;;3.70;;
14665;SDS011;7420;53.574;10.040;2023-08-21T00:06:37;3.92;;;3.83;;
14665;SDS011;7420;53.574;10.040;2023-08-21T00:09:02;4.07;;;3.97;;
14665;SDS011;7420;53.574;10.040;2023-08-21T00:11:28;4.00;;;3.90;;
14665;SDS011;7420;53.574;10.040;2023-08-21T00:13:53;3.90;;;3.80;;
14665;SDS011;7420;53.574;10.040;2023-08-21T00:16:19;3.90;;;3.80;;
14665;SDS011;7420;53.574;10.040;2023-08-21T00:18:44;3.90;;;3.80;;
14665;SDS011;7420;53.574;10.040;2023-08-21T00:21:10;3.80;;;3.70;;
14665;SDS011;7420;53.574;10.040;2023-08-21T00:23:35;3.70;;;3.60;;
14665;SDS011;7420;53.574;10.040;2023-08-21T00:26:00;3.90;;;3.80;;
14665;SDS011;7420;53.574;10.040;2023-08-21T00:28:26;3.92;;;3.83;;
14665;SDS011;7420;53.574;10.040;2023-08-21T00:30:51;4.00;;;3.90;;
14665;SDS011;7420;53.574;10.040;2023-08-21T00:33:24;3.92;;;3.83;;
14665;SDS011;7420;53.574;10.040;2023-08-21T00:35:49;4.00;;;3.90;;
14665;SDS011;7420;53.574;10.040;2023-08-21T00:38:15;4.03;;;3.92;;
14665;SDS011;7420;53.574;10.040;2023-08-21T00:40:40;3.80;;;3.70;;
14665;SDS011;7420;53.574;10.040;2023-08-21T00:43:05;3.85;;;3.75;;
14665;SDS011;7420;53.574;10.040;2023-08-21T00:45:31;4.10;;;4.00;;
14665;SDS011;7420;53.574;10.040;2023-08-21T00:47:56;4.10;;;4.00;;
14665;SDS011;7420;53.574;10.040;2023-08-21T00:50:22;4.13;;;4.00;;
14665;SDS011;7420;53.574;10.040;2023-08-21T00:52:47;3.95;;;3.85;;
14665;SDS011;7420;53.574;10.040;2023-08-21T00:55:13;4.20;;;4.00;;
14665;SDS011;7420;53.574;10.040;2023-08-21T00:57:39;3.90;;;3.80;;
14665;SDS011;7420;53.574;10.040;2023-08-21T01:00:05;3.80;;;3.70;;
14665;SDS011;7420;53.574;10.040;2023-08-21T01:02:32;4.00;;;3.90;;
14665;SDS011;7420;53.574;10.040;2023-08-21T01:04:58;4.05;;;3.95;;
14665;SDS011;7420;53.574;10.040;2023-08-21T01:07:23;4.00;;;3.90;;
14665;SDS011;7420;53.574;10.040;2023-08-21T01:15:15;4.30;;;4.10;;
14665;SDS011;7420;53.574;10.040;2023-08-21T01:17:41;4.00;;;3.90;;
14665;SDS011;7420;53.574;10.040;2023-08-21T01:20:08;3.92;;;3.83;;
14665;SDS011;7420;53.574;10.040;2023-08-21T01:22:35;3.90;;;3.80;;
14665;SDS011;7420;53.574;10.040;2023-08-21T01:25:01;3.92;;;3.83;;
14665;SDS011;7420;53.574;10.040;2023-08-21T01:27:27;3.90;;;3.80;;
14665;SDS011;7420;53.574;10.040;2023-08-21T01:29:53;4.20;;;4.00;;
14665;SDS011;7420;53.574;10.040;2023-08-21T01:34:56;4.00;;;3.90;;
14665;SDS011;7420;53.574;10.040;2023-08-21T01:37:24;3.90;;;3.80;;
14665;SDS011;7420;53.574;10.040;2023-08-21T01:39:49;4.00;;;3.90;;
14665;SDS011;7420;53.574;10.040;2023-08-21T01:42:15;4.30;;;4.10;;
14665;SDS011;7420;53.574;10.040;2023-08-21T01:44:40;4.10;;;4.00;;
14665;SDS011;7420;53.574;10.040;2023-08-21T01:47:06;4.03;;;3.92;;
14665;SDS011;7420;53.574;10.040;2023-08-21T01:49:31;4.15;;;4.00;;
14665;SDS011;7420;53.574;10.040;2023-08-21T01:51:56;4.00;;;3.90;;
14665;SDS011;7420;53.574;10.040;2023-08-21T01:54:22;4.00;;;3.90;;
14665;SDS011;7420;53.574;10.040;2023-08-21T01:56:47;4.10;;;4.00;;
14665;SDS011;7420;53.574;10.040;2023-08-21T01:59:12;4.20;;;4.00;;
14665;SDS011;7420;53.574;10.040;2023-08-21T02:01:38;4.20;;;4.00;;
14665;SDS011;7420;53.574;10.040;2023-08-21T02:04:03;4.07;;;3.97;;
14665;SDS011;7420;53.574;10.040;2023-08-21T02:06:29;4.20;;;4.00;;
14665;SDS011;7420;53.574;10.040;2023-08-21T02:08:54;4.20;;;4.00;;
14665;SDS011;7420;53.574;10.040;2023-08-21T02:11:19;4.25;;;4.05;;
14665;SDS011;7420;53.574;10.040;2023-08-21T02:13:45;4.20;;;4.00;;
14665;SDS011;7420;53.574;10.040;2023-08-21T02:16:10;4.20;;;4.00;;
14665;SDS011;7420;53.574;10.040;2023-08-21T02:18:35;4.15;;;3.97;;
14665;SDS011;7420;53.574;10.040;2023-08-21T02:21:01;4.00;;;3.90;;
14665;SDS011;7420;53.574;10.040;2023-08-21T02:23:26;4.10;;;4.00;;
14665;SDS011;7420;53.574;10.040;2023-08-21T02:25:52;4.30;;;4.10;;
14665;SDS011;7420;53.574;10.040;2023-08-21T02:28:18;4.40;;;4.20;;
14665;SDS011;7420;53.574;10.040;2023-08-21T02:30:44;4.00;;;3.90;;
14665;SDS011;7420;53.574;10.040;2023-08-21T02:33:10;4.20;;;4.00;;
14665;SDS011;7420;53.574;10.040;2023-08-21T02:35:35;4.20;;;4.00;;
14665;SDS011;7420;53.574;10.040;2023-08-21T02:38:01;4.20;;;4.00;;
14665;SDS011;7420;53.574;10.040;2023-08-21T02:40:26;4.00;;;3.90;;
14665;SDS011;7420;53.574;10.040;2023-08-21T02:42:52;4.40;;;4.20;;
14665;SDS011;7420;53.574;10.040;2023-08-21T02:45:17;4.00;;;3.90;;
14665;SDS011;7420;53.574;10.040;2023-08-21T02:47:44;4.00;;;3.90;;
14665;SDS011;7420;53.574;10.040;2023-08-21T02:50:10;4.18;;;4.00;;
14665;SDS011;7420;53.574;10.040;2023-08-21T02:52:36;4.40;;;4.20;;
14665;SDS011;7420;53.574;10.040;2023-08-21T02:55:02;4.15;;;3.95;;
14665;SDS011;7420;53.574;10.040;2023-08-21T02:57:27;4.20;;;4.00;;
14665;SDS011;7420;53.574;10.040;2023-08-21T02:59:53;4.25;;;4.05;;
14665;SDS011;7420;53.574;10.040;2023-08-21T03:02:19;4.20;;;4.00;;
14665;SDS011;7420;53.574;10.040;2023-08-21T03:04:45;4.18;;;4.00;;
14665;SDS011;7420;53.574;10.040;2023-08-21T03:07:10;4.20;;;4.00;;
14665;SDS011;7420;53.574;10.040;2023-08-21T03:09:36;4.20;;;4.00;;
14665;SDS011;7420;53.574;10.040;2023-08-21T03:12:02;4.10;;;4.00;;
14665;SDS011;7420;53.574;10.040;2023-08-21T03:14:28;4.20;;;4.00;;
14665;SDS011;7420;53.574;10.040;2023-08-21T03:16:54;4.30;;;4.10;;
14665;SDS011;7420;53.574;10.040;2023-08-21T03:19:19;4.10;;;4.00;;
14665;SDS011;7420;53.574;10.040;2023-08-21T03:21:44;4.30;;;4.10;;
14665;SDS011;7420;53.574;10.040;2023-08-21T03:24:10;4.30;;;4.10;;
14665;SDS011;7420;53.574;10.040;2023-08-21T03:26:35;4.00;;;3.90;;
14665;SDS011;7420;53.574;10.040;2023-08-21T03:29:01;4.00;;;3.90;;
14665;SDS011;7420;53.574;10.040;2023-08-21T03:31:26;4.35;;;4.15;;
14665;SDS011;7420;53.574;10.040;2023-08-21T03:33:52;4.50;;;4.30;;
14665;SDS011;7420;53.574;10.040;2023-08-21T03:36:17;4.20;;;4.00;;
14665;SDS011;7420;53.574;10.040;2023-08-21T03:38:44;4.20;;;4.00;;
14665;SDS011;7420;53.574;10.040;2023-08-21T03:41:09;10.88;;;10.48;;
14665;SDS011;7420;53.574;10.040;2023-08-21T03:43:34;3.92;;;3.83;;
14665;SDS011;7420;53.574;10.040;2023-08-21T03:46:00;4.38;;;4.18;;
14665;SDS011;7420;53.574;10.040;2023-08-21T03:48:25;4.47;;;4.28;;
14665;SDS011;7420;53.574;10.040;2023-08-21T03:50:50;4.00;;;3.90;;
14665;SDS011;7420;53.574;10.040;2023-08-21T03:53:16;4.50;;;4.30;;
14665;SDS011;7420;53.574;10.040;2023-08-21T03:55:41;4.45;;;4.25;;
14665;SDS011;7420;53.574;10.040;2023-08-21T03:58:06;4.35;;;4.15;;
14665;SDS011;7420;53.574;10.040;2023-08-21T04:00:32;4.30;;;4.10;;
14665;SDS011;7420;53.574;10.040;2023-08-21T04:02:57;4.00;;;3.90;;
14665;SDS011;7420;53.574;10.040;2023-08-21T04:05:23;4.20;;;4.00;;
14665;SDS011;7420;53.574;10.040;2023-08-21T04:07:48;4.40;;;4.20;;
14665;SDS011;7420;53.574;10.040;2023-08-21T04:10:14;4.15;;;4.00;;
14665;SDS011;7420;53.574;10.040;2023-08-21T04:12:41;4.30;;;4.10;;
14665;SDS011;7420;53.574;10.040;2023-08-21T04:15:06;4.20;;;4.00;;
14665;SDS011;7420;53.574;10.040;2023-08-21T04:17:32;4.20;;;4.00;;
14665;SDS011;7420;53.574;10.040;2023-08-21T04:19:57;4.50;;;4.30;;
14665;SDS011;7420;53.574;10.040;2023-08-21T04:22:23;4.40;;;4.20;;
14665;SDS011;7420;53.574;10.040;2023-08-21T04:24:48;4.30;;;4.10;;
14665;SDS011;7420;53.574;10.040;2023-08-21T04:27:13;4.30;;;4.10;;
14665;SDS011;7420;53.574;10.040;2023-08-21T04:29:39;4.40;;;4.20;;
14665;SDS011;7420;53.574;10.040;2023-08-21T04:32:04;4.00;;;3.90;;
14665;SDS011;7420;53.574;10.040;2023-08-21T04:34:31;4.00;;;3.90;;
14665;SDS011;7420;53.574;10.040;2023-08-21T04:36:57;4.30;;;4.10;;
14665;SDS011;7420;53.574;10.040;2023-08-21T04:39:22;4.00;;;3.90;;
14665;SDS011;7420;53.574;10.040;2023-08-21T04:41:48;4.30;;;4.10;;
14665;SDS011;7420;53.574;10.040;2023-08-21T04:44:13;4.47;;;4.28;;
14665;SDS011;7420;53.574;10.040;2023-08-21T04:46:38;4.40;;;4.20;;
14665;SDS011;7420;53.574;10.040;2023-08-21T04:49:04;4.30;;;4.10;;
14665;SDS011;7420;53.574;10.040;2023-08-21T04:51:29;4.22;;;4.03;;
14665;SDS011;7420;53.574;10.040;2023-08-21T04:53:54;4.30;;;4.10;;
14665;SDS011;7420;53.574;10.040;2023-08-21T04:56:20;4.40;;;4.20;;
14665;SDS011;7420;53.574;10.040;2023-08-21T04:58:45;4.35;;;4.15;;
14665;SDS011;7420;53.574;10.040;2023-08-21T05:01:10;4.18;;;4.00;;
14665;SDS011;7420;53.574;10.040;2023-08-21T05:03:36;4.25;;;4.05;;
14665;SDS011;7420;53.574;10.040;2023-08-21T05:06:01;4.30;;;4.10;;
14665;SDS011;7420;53.574;10.040;2023-08-21T05:08:26;4.28;;;4.07;;
14665;SDS011;7420;53.574;10.040;2023-08-21T05:10:58;4.28;;;4.07;;
14665;SDS011;7420;53.574;10.040;2023-08-21T05:13:25;4.30;;;4.10;;
14665;SDS011;7420;53.574;10.040;2023-08-21T05:15:51;4.20;;;4.00;;
14665;SDS011;7420;53.574;10.040;2023-08-21T05:18:17;4.40;;;4.20;;
14665;SDS011;7420;53.574;10.040;2023-08-21T05:20:42;4.40;;;4.20;;
14665;SDS011;7420;53.574;10.040;2023-08-21T05:23:08;4.30;;;4.10;;
14665;SDS011;7420;53.574;10.040;2023-08-21T05:25:33;4.10;;;4.00;;
14665;SDS011;7420;53.574;10.040;2023-08-21T05:27:59;4.20;;;4.00;;
14665;SDS011;7420;53.574;10.040;2023-08-21T05:30:24;4.20;;;4.00;;
14665;SDS011;7420;53.574;10.040;2023-08-21T05:32:50;4.30;;;4.10;;
14665;SDS011;7420;53.574;10.040;2023-08-21T05:35:15;4.00;;;3.90;;
14665;SDS011;7420;53.574;10.040;2023-08-21T05:37:41;4.20;;;4.00;;
14665;SDS011;7420;53.574;10.040;2023-08-21T05:40:06;4.15;;;4.00;;
14665;SDS011;7420;53.574;10.040;2023-08-21T05:42:32;4.30;;;4.10;;
14665;SDS011;7420;53.574;10.040;2023-08-21T05:44:58;4.10;;;4.00;;
14665;SDS011;7420;53.574;10.040;2023-08-21T05:47:23;4.00;;;3.90;;
14665;SDS011;7420;53.574;10.040;2023-08-21T05:49:49;4.00;;;3.90;;
14665;SDS011;7420;53.574;10.040;2023-08-21T05:52:15;4.30;;;4.10;;
14665;SDS011;7420;53.574;10.040;2023-08-21T05:54:41;4.00;;;3.90;;
14665;SDS011;7420;53.574;10.040;2023-08-21T05:57:06;4.00;;;3.90;;
14665;SDS011;7420;53.574;10.040;2023-08-21T05:59:32;4.00;;;3.90;;
14665;SDS011;7420;53.574;10.040;2023-08-21T06:01:58;4.00;;;3.90;;
14665;SDS011;7420;53.574;10.040;2023-08-21T06:04:24;3.90;;;3.80;;
14665;SDS011;7420;53.574;10.040;2023-08-21T06:06:49;4.18;;;4.03;;
14665;SDS011;7420;53.574;10.040;2023-08-21T06:09:15;3.80;;;3.70;;
14665;SDS011;7420;53.574;10.040;2023-08-21T06:11:42;3.88;;;3.78;;
14665;SDS011;7420;53.574;10.040;2023-08-21T06:14:07;3.90;;;3.80;;
14665;SDS011;7420;53.574;10.040;2023-08-21T06:16:33;3.90;;;3.80;;
14665;SDS011;7420;53.574;10.040;2023-08-21T06:18:58;4.20;;;4.00;;
14665;SDS011;7420;53.574;10.040;2023-08-21T06:21:24;4.00;;;3.90;;
14665;SDS011;7420;53.574;10.040;2023-08-21T06:23:49;3.90;;;3.80;;
14665;SDS011;7420;53.574;10.040;2023-08-21T06:26:14;3.85;;;3.75;;
14665;SDS011;7420;53.574;10.040;2023-08-21T06:28:40;3.92;;;3.83;;
14665;SDS011;7420;53.574;10.040;2023-08-21T06:31:05;4.30;;;4.10;;
14665;SDS011;7420;53.574;10.040;2023-08-21T06:33:32;4.00;;;3.90;;
14665;SDS011;7420;53.574;10.040;2023-08-21T06:35:58;4.07;;;3.97;;
14665;SDS011;7420;53.574;10.040;2023-08-21T06:38:24;3.90;;;3.80;;
14665;SDS011;7420;53.574;10.040;2023-08-21T06:40:49;3.90;;;3.80;;
14665;SDS011;7420;53.574;10.040;2023-08-21T06:43:16;3.88;;;3.78;;
14665;SDS011;7420;53.574;10.040;2023-08-21T06:45:41;4.05;;;3.95;;
14665;SDS011;7420;53.574;10.040;2023-08-21T06:48:06;3.90;;;3.80;;
14665;SDS011;7420;53.574;10.040;2023-08-21T06:50:32;3.80;;;3.70;;
14665;SDS011;7420;53.574;10.040;2023-08-21T06:52:57;4.00;;;3.90;;
14665;SDS011;7420;53.574;10.040;2023-08-21T06:55:23;3.80;;;3.70;;
14665;SDS011;7420;53.574;10.040;2023-08-21T06:57:48;3.90;;;3.80;;
14665;SDS011;7420;53.574;10.040;2023-08-21T07:00:13;3.80;;;3.70;;
14665;SDS011;7420;53.574;10.040;2023-08-21T07:02:39;3.85;;;3.75;;
14665;SDS011;7420;53.574;10.040;2023-08-21T07:05:04;3.78;;;3.67;;
14665;SDS011;7420;53.574;10.040;2023-08-21T07:07:30;3.88;;;3.78;;
14665;SDS011;7420;53.574;10.040;2023-08-21T07:09:55;4.00;;;3.90;;
14665;SDS011;7420;53.574;10.040;2023-08-21T07:12:21;3.90;;;3.80;;
14665;SDS011;7420;53.574;10.040;2023-08-21T07:14:47;3.80;;;3.70;;
14665;SDS011;7420;53.574;10.040;2023-08-21T07:17:13;3.90;;;3.80;;
14665;SDS011;7420;53.574;10.040;2023-08-21T07:19:38;4.00;;;3.90;;
14665;SDS011;7420;53.574;10.040;2023-08-21T07:22:04;3.88;;;3.78;;
14665;SDS011;7420;53.574;10.040;2023-08-21T07:24:29;3.90;;;3.80;;
14665;SDS011;7420;53.574;10.040;2023-08-21T07:26:54;3.97;;;3.88;;
14665;SDS011;7420;53.574;10.040;2023-08-21T07:29:20;3.80;;;3.70;;
14665;SDS011;7420;53.574;10.040;2023-08-21T07:31:45;3.90;;;3.80;;
14665;SDS011;7420;53.574;10.040;2023-08-21T07:34:11;3.85;;;3.75;;
14665;SDS011;7420;53.574;10.040;2023-08-21T07:36:36;3.90;;;3.80;;
14665;SDS011;7420;53.574;10.040;2023-08-21T07:39:01;3.80;;;3.70;;
14665;SDS011;7420;53.574;10.040;2023-08-21T07:41:27;3.78;;;3.67;;
14665;SDS011;7420;53.574;10.040;2023-08-21T07:43:52;4.28;;;4.07;;
14665;SDS011;7420;53.574;10.040;2023-08-21T07:46:17;3.90;;;3.80;;
14665;SDS011;7420;53.574;10.040;2023-08-21T07:48:44;3.85;;;3.75;;
14665;SDS011;7420;53.574;10.040;2023-08-21T07:51:12;3.80;;;3.70;;
14665;SDS011;7420;53.574;10.040;2023-08-21T07:53:38;3.70;;;3.60;;
14665;SDS011;7420;53.574;10.040;2023-08-21T07:56:03;3.70;;;3.60;;
14665;SDS011;7420;53.574;10.040;2023-08-21T07:58:29;3.75;;;3.65;;
14665;SDS011;7420;53.574;10.040;2023-08-21T08:00:55;3.70;;;3.60;;
14665;SDS011;7420;53.574;10.040;2023-08-21T08:03:21;3.80;;;3.70;;
14665;SDS011;7420;53.574;10.040;2023-08-21T08:05:47;3.80;;;3.70;;
14665;SDS011;7420;53.574;10.040;2023-08-21T08:08:12;3.85;;;3.75;;
14665;SDS011;7420;53.574;10.040;2023-08-21T08:10:40;3.90;;;3.80;;
14665;SDS011;7420;53.574;10.040;2023-08-21T08:13:06;3.80;;;3.70;;
14665;SDS011;7420;53.574;10.040;2023-08-21T08:15:32;3.90;;;3.80;;
14665;SDS011;7420;53.574;10.040;2023-08-21T08:17:59;3.70;;;3.60;;
14665;SDS011;7420;53.574;10.040;2023-08-21T08:20:25;3.80;;;3.70;;
14665;SDS011;7420;53.574;10.040;2023-08-21T08:22:50;3.83;;;3.72;;
14665;SDS011;7420;53.574;10.040;2023-08-21T08:25:16;3.90;;;3.80;;
14665;SDS011;7420;53.574;10.040;2023-08-21T08:27:42;3.90;;;3.80;;
14665;SDS011;7420;53.574;10.040;2023-08-21T08:30:08;3.90;;;3.80;;
14665;SDS011;7420;53.574;10.040;2023-08-21T08:32:33;3.80;;;3.70;;
14665;SDS011;7420;53.574;10.040;2023-08-21T08:34:59;3.97;;;3.88;;
14665;SDS011;7420;53.574;10.040;2023-08-21T08:37:24;3.70;;;3.60;;
14665;SDS011;7420;53.574;10.040;2023-08-21T08:39:50;3.80;;;3.70;;
14665;SDS011;7420;53.574;10.040;2023-08-21T08:42:15;3.80;;;3.70;;
14665;SDS011;7420;53.574;10.040;2023-08-21T08:44:42;3.88;;;3.78;;
14665;SDS011;7420;53.574;10.040;2023-08-21T08:47:08;3.80;;;3.70;;
14665;SDS011;7420;53.574;10.040;2023-08-21T08:49:35;3.70;;;3.60;;
14665;SDS011;7420;53.574;10.040;2023-08-21T08:52:02;3.80;;;3.70;;
14665;SDS011;7420;53.574;10.040;2023-08-21T08:54:28;3.80;;;3.70;;
14665;SDS011;7420;53.574;10.040;2023-08-21T08:56:54;3.80;;;3.70;;
14665;SDS011;7420;53.574;10.040;2023-08-21T08:59:20;3.80;;;3.70;;
14665;SDS011;7420;53.574;10.040;2023-08-21T09:01:45;3.92;;;3.83;;
14665;SDS011;7420;53.574;10.040;2023-08-21T09:04:11;3.80;;;3.70;;
14665;SDS011;7420;53.574;10.040;2023-08-21T09:06:37;3.70;;;3.60;;
14665;SDS011;7420;53.574;10.040;2023-08-21T09:09:03;4.00;;;3.90;;
14665;SDS011;7420;53.574;10.040;2023-08-21T09:11:29;3.70;;;3.60;;
14665;SDS011;7420;53.574;10.040;2023-08-21T09:13:54;3.78;;;3.67;;
14665;SDS011;7420;53.574;10.040;2023-08-21T09:16:21;3.70;;;3.60;;
14665;SDS011;7420;53.574;10.040;2023-08-21T09:18:51;3.80;;;3.70;;
14665;SDS011;7420;53.574;10.040;2023-08-21T09:21:25;3.80;;;3.70;;
14665;SDS011;7420;53.574;10.040;2023-08-21T09:23:56;3.70;;;3.60;;
14665;SDS011;7420;53.574;10.040;2023-08-21T09:26:24;3.70;;;3.60;;
14665;SDS011;7420;53.574;10.040;2023-08-21T09:28:50;3.85;;;3.75;;
14665;SDS011;7420;53.574;10.040;2023-08-21T09:31:21;3.70;;;3.60;;
14665;SDS011;7420;53.574;10.040;2023-08-21T09:34:01;3.70;;;3.60;;
14665;SDS011;7420;53.574;10.040;2023-08-21T09:36:30;3.70;;;3.60;;
14665;SDS011;7420;53.574;10.040;2023-08-21T09:38:55;3.80;;;3.70;;
14665;SDS011;7420;53.574;10.040;2023-08-21T09:41:21;3.70;;;3.60;;
14665;SDS011;7420;53.574;10.040;2023-08-21T09:43:50;3.60;;;3.50;;
14665;SDS011;7420;53.574;10.040;2023-08-21T09:46:16;3.80;;;3.70;;
14665;SDS011;7420;53.574;10.040;2023-08-21T09:48:48;3.70;;;3.60;;
14665;SDS011;7420;53.574;10.040;2023-08-21T09:51:15;3.65;;;3.55;;
14665;SDS011;7420;53.574;10.040;2023-08-21T09:53:40;3.80;;;3.70;;
14665;SDS011;7420;53.574;10.040;2023-08-21T09:56:06;3.70;;;3.60;;
14665;SDS011;7420;53.574;10.040;2023-08-21T09:58:33;3.80;;;3.70;;
14665;SDS011;7420;53.574;10.040;2023-08-21T10:01:00;3.70;;;3.60;;
14665;SDS011;7420;53.574;10.040;2023-08-21T10:03:31;3.90;;;3.80;;
14665;SDS011;7420;53.574;10.040;2023-08-21T10:05:57;3.60;;;3.50;;
14665;SDS011;7420;53.574;10.040;2023-08-21T10:08:24;3.70;;;3.60;;
14665;SDS011;7420;53.574;10.040;2023-08-21T10:10:50;3.80;;;3.70;;
14665;SDS011;7420;53.574;10.040;2023-08-21T10:13:16;3.70;;;3.60;;
14665;SDS011;7420;53.574;10.040;2023-08-21T10:15:43;3.67;;;3.58;;
14665;SDS011;7420;53.574;10.040;2023-08-21T10:18:29;3.50;;;3.40;;
14665;SDS011;7420;53.574;10.040;2023-08-21T10:20:56;3.63;;;3.53;;
14665;SDS011;7420;53.574;10.040;2023-08-21T10:23:38;3.67;;;3.58;;
14665;SDS011;7420;53.574;10.040;2023-08-21T10:26:07;3.60;;;3.50;;
14665;SDS011;7420;53.574;10.040;2023-08-21T10:31:29;3.50;;;3.40;;
14665;SDS011;7420;53.574;10.040;2023-08-21T10:33:54;3.90;;;3.80;;
14665;SDS011;7420;53.574;10.040;2023-08-21T10:36:36;3.60;;;3.50;;
14665;SDS011;7420;53.574;10.040;2023-08-21T10:39:12;3.60;;;3.50;;
14665;SDS011;7420;53.574;10.040;2023-08-21T10:44:33;3.60;;;3.50;;
14665;SDS011;7420;53.574;10.040;2023-08-21T10:49:40;3.50;;;3.40;;
14665;SDS011;7420;53.574;10.040;2023-08-21T10:52:06;3.42;;;3.33;;
14665;SDS011;7420;53.574;10.040;2023-08-21T10:54:50;3.55;;;3.45;;
14665;SDS011;7420;53.574;10.040;2023-08-21T10:57:17;3.70;;;3.60;;
14665;SDS011;7420;53.574;10.040;2023-08-21T11:00:16;3.60;;;3.50;;
14665;SDS011;7420;53.574;10.040;2023-08-21T11:02:37;3.53;;;3.42;;
14665;SDS011;7420;53.574;10.040;2023-08-21T11:05:04;3.70;;;3.60;;
14665;SDS011;7420;53.574;10.040;2023-08-21T11:07:32;3.70;;;3.60;;
14665;SDS011;7420;53.574;10.040;2023-08-21T11:10:02;3.60;;;3.50;;
14665;SDS011;7420;53.574;10.040;2023-08-21T11:12:28;3.50;;;3.40;;
14665;SDS011;7420;53.574;10.040;2023-08-21T11:14:54;3.50;;;3.40;;
14665;SDS011;7420;53.574;10.040;2023-08-21T11:17:19;3.40;;;3.30;;
14665;SDS011;7420;53.574;10.040;2023-08-21T11:19:45;3.40;;;3.30;;
14665;SDS011;7420;53.574;10.040;2023-08-21T11:22:31;3.50;;;3.40;;
14665;SDS011;7420;53.574;10.040;2023-08-21T11:24:57;3.40;;;3.30;;
14665;SDS011;7420;53.574;10.040;2023-08-21T11:27:22;3.40;;;3.30;;
14665;SDS011;7420;53.574;10.040;2023-08-21T11:29:49;3.50;;;3.40;;
14665;SDS011;7420;53.574;10.040;2023-08-21T11:32:22;3.50;;;3.40;;
14665;SDS011;7420;53.574;10.040;2023-08-21T11:34:49;3.45;;;3.35;;
14665;SDS011;7420;53.574;10.040;2023-08-21T11:37:21;3.50;;;3.40;;
14665;SDS011;7420;53.574;10.040;2023-08-21T11:39:51;3.50;;;3.40;;
14665;SDS011;7420;53.574;10.040;2023-08-21T11:42:18;3.50;;;3.40;;
14665;SDS011;7420;53.574;10.040;2023-08-21T11:47:11;3.50;;;3.40;;
14665;SDS011;7420;53.574;10.040;2023-08-21T11:49:40;3.53;;;3.42;;
14665;SDS011;7420;53.574;10.040;2023-08-21T11:52:07;3.60;;;3.50;;
14665;SDS011;7420;53.574;10.040;2023-08-21T11:54:34;3.50;;;3.40;;
14665;SDS011;7420;53.574;10.040;2023-08-21T11:57:03;3.40;;;3.30;;
14665;SDS011;7420;53.574;10.040;2023-08-21T11:59:32;3.30;;;3.20;;
14665;SDS011;7420;53.574;10.040;2023-08-21T12:01:58;3.40;;;3.30;;
14665;SDS011;7420;53.574;10.040;2023-08-21T12:04:24;3.40;;;3.30;;
14665;SDS011;7420;53.574;10.040;2023-08-21T12:06:50;3.33;;;3.22;;
14665;SDS011;7420;53.574;10.040;2023-08-21T12:09:15;3.30;;;3.20;;
14665;SDS011;7420;53.574;10.040;2023-08-21T12:11:40;3.40;;;3.30;;
14665;SDS011;7420;53.574;10.040;2023-08-21T12:14:06;3.30;;;3.20;;
14665;SDS011;7420;53.574;10.040;2023-08-21T12:16:31;3.40;;;3.30;;
14665;SDS011;7420;53.574;10.040;2023-08-21T12:18:57;3.30;;;3.20;;
14665;SDS011;7420;53.574;10.040;2023-08-21T12:21:23;3.22;;;3.13;;
14665;SDS011;7420;53.574;10.040;2023-08-21T12:23:49;3.15;;;3.05;;
14665;SDS011;7420;53.574;10.040;2023-08-21T12:26:14;3.20;;;3.10;;
14665;SDS011;7420;53.574;10.040;2023-08-21T12:28:45;3.20;;;3.10;;
14665;SDS011;7420;53.574;10.040;2023-08-21T12:31:11;3.10;;;3.00;;
14665;SDS011;7420;53.574;10.040;2023-08-21T12:33:37;3.17;;;3.08;;
14665;SDS011;7420;53.574;10.040;2023-08-21T12:36:02;3.20;;;3.10;;
14665;SDS011;7420;53.574;10.040;2023-08-21T12:38:28;3.30;;;3.20;;
14665;SDS011;7420;53.574;10.040;2023-08-21T12:40:54;3.30;;;3.20;;
14665;SDS011;7420;53.574;10.040;2023-08-21T12:43:20;3.30;;;3.20;;
14665;SDS011;7420;53.574;10.040;2023-08-21T12:45:46;3.30;;;3.20;;
14665;SDS011;7420;53.574;10.040;2023-08-21T12:48:12;3.20;;;3.10;;
14665;SDS011;7420;53.574;10.040;2023-08-21T12:50:37;3.20;;;3.10;;
14665;SDS011;7420;53.574;10.040;2023-08-21T12:53:03;3.17;;;3.08;;
14665;SDS011;7420;53.574;10.040;2023-08-21T12:55:28;3.20;;;3.10;;
14665;SDS011;7420;53.574;10.040;2023-08-21T12:57:55;3.20;;;3.10;;
14665;SDS011;7420;53.574;10.040;2023-08-21T13:00:21;3.00;;;2.90;;
14665;SDS011;7420;53.574;10.040;2023-08-21T13:02:46;3.10;;;3.00;;
14665;SDS011;7420;53.574;10.040;2023-08-21T13:05:11;3.20;;;3.10;;
14665;SDS011;7420;53.574;10.040;2023-08-21T13:07:37;3.20;;;3.10;;
14665;SDS011;7420;53.574;10.040;2023-08-21T13:10:02;3.10;;;3.00;;
14665;SDS011;7420;53.574;10.040;2023-08-21T13:12:28;3.00;;;2.90;;
14665;SDS011;7420;53.574;10.040;2023-08-21T13:14:53;3.03;;;2.92;;
14665;SDS011;7420;53.574;10.040;2023-08-21T13:17:19;2.90;;;2.80;;
14665;SDS011;7420;53.574;10.040;2023-08-21T13:19:44;3.00;;;2.90;;
14665;SDS011;7420;53.574;10.040;2023-08-21T13:22:10;3.10;;;3.00;;
14665;SDS011;7420;53.574;10.040;2023-08-21T13:24:35;2.90;;;2.80;;
14665;SDS011;7420;53.574;10.040;2023-08-21T13:27:00;2.90;;;2.80;;
14665;SDS011;7420;53.574;10.040;2023-08-21T13:29:26;3.00;;;2.90;;
14665;SDS011;7420;53.574;10.040;2023-08-21T13:31:51;2.95;;;2.85;;
14665;SDS011;7420;53.574;10.040;2023-08-21T13:34:17;2.90;;;2.80;;
14665;SDS011;7420;53.574;10.040;2023-08-21T13:36:42;2.80;;;2.70;;
14665;SDS011;7420;53.574;10.040;2023-08-21T13:39:08;2.80;;;2.70;;
14665;SDS011;7420;53.574;10.040;2023-08-21T13:41:35;2.80;;;2.70;;
14665;SDS011;7420;53.574;10.040;2023-08-21T13:44:01;2.90;;;2.80;;
14665;SDS011;7420;53.574;10.040;2023-08-21T13:46:26;2.90;;;2.80;;
14665;SDS011;7420;53.574;10.040;2023-08-21T13:48:52;2.88;;;2.78;;
14665;SDS011;7420;53.574;10.040;2023-08-21T13:51:17;2.80;;;2.70;;
14665;SDS011;7420;53.574;10.040;2023-08-21T13:53:42;2.80;;;2.70;;
14665;SDS011;7420;53.574;10.040;2023-08-21T13:56:08;2.70;;;2.60;;
14665;SDS011;7420;53.574;10.040;2023-08-21T13:58:33;2.80;;;2.70;;
14665;SDS011;7420;53.574;10.040;2023-08-21T14:00:59;2.78;;;2.67;;
14665;SDS011;7420;53.574;10.040;2023-08-21T14:03:24;2.80;;;2.70;;
14665;SDS011;7420;53.574;10.040;2023-08-21T14:05:49;2.72;;;2.63;;
14665;SDS011;7420;53.574;10.040;2023-08-21T14:08:15;2.70;;;2.60;;
14665;SDS011;7420;53.574;10.040;2023-08-21T14:10:40;2.80;;;2.70;;
14665;SDS011;7420;53.574;10.040;2023-08-21T14:13:06;2.80;;;2.70;;
14665;SDS011;7420;53.574;10.040;2023-08-21T14:15:33;2.78;;;2.67;;
14665;SDS011;7420;53.574;10.040;2023-08-21T14:17:59;2.75;;;2.65;;
14665;SDS011;7420;53.574;10.040;2023-08-21T14:20:24;2.72;;;2.63;;
14665;SDS011;7420;53.574;10.040;2023-08-21T14:22:49;2.90;;;2.80;;
14665;SDS011;7420;53.574;10.040;2023-08-21T14:25:15;2.80;;;2.70;;
14665;SDS011;7420;53.574;10.040;2023-08-21T14:27:41;2.70;;;2.60;;
14665;SDS011;7420;53.574;10.040;2023-08-21T14:30:07;2.70;;;2.60;;
14665;SDS011;7420;53.574;10.040;2023-08-21T14:32:33;2.70;;;2.60;;
14665;SDS011;7420;53.574;10.040;2023-08-21T14:34:58;2.70;;;2.60;;
14665;SDS011;7420;53.574;10.040;2023-08-21T14:37:44;2.80;;;2.70;;
14665;SDS011;7420;53.574;10.040;2023-08-21T14:40:10;2.70;;;2.60;;
14665;SDS011;7420;53.574;10.040;2023-08-21T14:42:36;2.65;;;2.55;;
14665;SDS011;7420;53.574;10.040;2023-08-21T14:45:01;2.70;;;2.60;;
14665;SDS011;7420;53.574;10.040;2023-08-21T14:47:28;2.60;;;2.50;;
14665;SDS011;7420;53.574;10.040;2023-08-21T14:49:53;2.70;;;2.60;;
14665;SDS011;7420;53.574;10.040;2023-08-21T14:52:19;2.70;;;2.60;;
14665;SDS011;7420;53.574;10.040;2023-08-21T14:54:45;2.70;;;2.60;;
14665;SDS011;7420;53.574;10.040;2023-08-21T14:57:11;2.70;;;2.60;;
14665;SDS011;7420;53.574;10.040;2023-08-21T14:59:36;2.70;;;2.60;;
14665;SDS011;7420;53.574;10.040;2023-08-21T15:02:01;2.70;;;2.60;;